Time;durP1;ratioP1;P1;durP2;ratioP2;P2;SDS_P1;SDS_P2;PMS_P1;PMS_P2;Temp;Humidity;BMP_temperature;BMP_pressure;BME280_temperature;BME280_humidity;BME280_pressure;Samples;Min_cycle;Max_cycle;Signal;HPM_P1;HPM_P2
2022/05/09 00:00:44;;;;;;;4.35;1.20;;;11.10;64.50;;;;;;2071061;28;20045;-87
2022/05/09 00:02:04;;;;;;;3.30;1.20;;;11.10;64.60;;;;;;2074497;28;20504;-87
2022/05/09 00:03:23;;;;;;;5.07;1.30;;;11.10;64.60;;;;;;2074529;28;20080;-87
2022/05/09 00:04:43;;;;;;;4.60;0.98;;;11.10;64.70;;;;;;2074050;28;20042;-87
2022/05/09 00:06:02;;;;;;;4.63;1.13;;;11.10;64.80;;;;;;2074412;28;20054;-87
2022/05/09 00:07:21;;;;;;;3.55;1.08;;;11.10;64.90;;;;;;2072305;28;20268;-86
2022/05/09 00:08:42;;;;;;;3.90;0.93;;;11.00;65.00;;;;;;2072188;28;20049;-87
2022/05/09 00:10:01;;;;;;;6.20;1.23;;;11.00;65.00;;;;;;2070992;28;20034;-87
2022/05/09 00:11:21;;;;;;;4.18;1.20;;;11.00;65.00;;;;;;2072106;28;20042;-87
2022/05/09 00:12:40;;;;;;;5.57;1.30;;;11.00;65.20;;;;;;2071334;28;20042;-87
2022/05/09 00:14:00;;;;;;;4.85;1.10;;;11.00;65.20;;;;;;2051450;28;20506;-87
2022/05/09 00:15:21;;;;;;;4.45;1.05;;;11.00;65.30;;;;;;2067078;28;20117;-87
2022/05/09 00:16:41;;;;;;;5.53;1.20;;;11.00;65.40;;;;;;2070494;28;20128;-87
2022/05/09 00:18:00;;;;;;;4.53;1.30;;;11.00;65.40;;;;;;2078698;28;20495;-87
2022/05/09 00:19:20;;;;;;;4.40;1.30;;;11.00;65.40;;;;;;2075875;28;20459;-87
2022/05/09 00:20:40;;;;;;;4.05;1.17;;;11.00;65.50;;;;;;2067503;28;20505;-87
2022/05/09 00:22:00;;;;;;;4.00;0.98;;;10.90;65.50;;;;;;2069513;28;20503;-87
2022/05/09 00:23:19;;;;;;;3.90;1.00;;;11.00;65.60;;;;;;2073497;28;20053;-87
2022/05/09 00:24:38;;;;;;;3.50;0.93;;;10.90;65.60;;;;;;2073837;28;20042;-87
2022/05/09 00:25:58;;;;;;;5.07;1.20;;;10.90;65.60;;;;;;2074681;28;20045;-87
2022/05/09 00:27:16;;;;;;;4.30;0.95;;;10.90;65.60;;;;;;2073543;28;20049;-87
2022/05/09 00:28:35;;;;;;;4.72;1.20;;;10.90;65.70;;;;;;2070568;28;20037;-87
2022/05/09 00:29:55;;;;;;;4.18;1.20;;;10.90;65.70;;;;;;2072235;28;20041;-87
2022/05/09 00:31:14;;;;;;;4.43;1.25;;;10.90;65.70;;;;;;2073289;28;20038;-87
2022/05/09 00:32:33;;;;;;;4.75;0.90;;;10.90;65.70;;;;;;2074807;28;20053;-88
2022/05/09 00:33:52;;;;;;;3.83;1.10;;;10.90;65.80;;;;;;2067321;28;20482;-87
2022/05/09 00:35:12;;;;;;;3.22;1.00;;;10.90;65.80;;;;;;2070755;28;20039;-87
2022/05/09 00:36:32;;;;;;;5.37;1.40;;;10.90;65.80;;;;;;2073460;28;20097;-86
2022/05/09 00:37:51;;;;;;;3.58;1.10;;;10.90;65.90;;;;;;2074792;28;20261;-85
2022/05/09 00:39:10;;;;;;;4.43;1.15;;;10.90;65.90;;;;;;2067665;28;20046;-86
2022/05/09 00:40:30;;;;;;;4.40;1.30;;;11.00;65.90;;;;;;2053483;28;20114;-87
2022/05/09 00:41:49;;;;;;;4.13;1.15;;;11.00;66.00;;;;;;2056626;28;20043;-87
2022/05/09 00:43:29;;;;;;;3.38;1.02;;;10.90;66.00;;;;;;2069131;28;20496;-86
2022/05/09 00:44:49;;;;;;;5.20;0.90;;;10.90;66.00;;;;;;2063049;28;20042;-87
2022/05/09 00:46:09;;;;;;;4.13;1.00;;;10.90;66.00;;;;;;2061823;28;20042;-87
2022/05/09 00:47:28;;;;;;;1.88;1.00;;;10.90;66.10;;;;;;2062476;28;20077;-87
2022/05/09 00:48:47;;;;;;;3.95;1.08;;;10.90;66.20;;;;;;2057382;28;20039;-87
2022/05/09 00:50:09;;;;;;;4.72;1.35;;;10.90;66.20;;;;;;2062378;28;20492;-87
2022/05/09 00:51:29;;;;;;;5.93;1.10;;;10.90;66.40;;;;;;2070754;28;20037;-87
2022/05/09 00:53:07;;;;;;;2.80;1.10;;;10.80;66.40;;;;;;2065090;28;20409;-87
2022/05/09 00:54:30;;;;;;;2.28;0.80;;;10.80;66.40;;;;;;2072517;28;20030;-86
2022/05/09 00:55:54;;;;;;;4.20;1.17;;;10.80;66.40;;;;;;2073778;28;20061;-87
2022/05/09 00:57:53;;;;;;;4.85;1.23;;;10.80;66.50;;;;;;2058131;28;20517;-87
2022/05/09 00:59:16;;;;;;;4.57;1.13;;;10.80;66.50;;;;;;2060580;28;20034;-86
2022/05/09 01:00:35;;;;;;;3.10;1.00;;;10.80;66.60;;;;;;2062208;28;20154;-86
2022/05/09 01:01:55;;;;;;;3.53;1.00;;;10.80;66.60;;;;;;2069918;28;20042;-87
2022/05/09 01:03:23;;;;;;;4.40;0.93;;;10.70;66.60;;;;;;2073998;28;20030;-87
2022/05/09 01:04:52;;;;;;;4.85;1.20;;;10.70;66.80;;;;;;2065084;28;20050;-87
2022/05/09 01:06:12;;;;;;;4.63;1.00;;;10.70;66.80;;;;;;2071610;28;20436;-87
2022/05/09 01:07:31;;;;;;;4.53;1.05;;;10.70;66.90;;;;;;2073601;28;20045;-87
2022/05/09 01:08:51;;;;;;;5.05;1.33;;;10.70;67.00;;;;;;2065255;28;20030;-87
2022/05/09 01:10:12;;;;;;;3.80;1.10;;;10.60;67.00;;;;;;2047327;28;20035;-87
2022/05/09 01:11:32;;;;;;;4.55;1.25;;;10.60;67.10;;;;;;2062254;28;20034;-86
2022/05/09 01:12:52;;;;;;;2.33;1.00;;;10.60;67.80;;;;;;2055776;28;20043;-87
2022/05/09 01:14:21;;;;;;;4.28;0.85;;;10.60;67.10;;;;;;2060103;28;20085;-86
2022/05/09 01:15:43;;;;;;;6.22;1.10;;;10.60;67.30;;;;;;2061954;28;20042;-87
2022/05/09 01:17:03;;;;;;;2.47;0.93;;;10.60;67.20;;;;;;2068489;28;20034;-87
2022/05/09 01:18:23;;;;;;;4.65;1.27;;;10.60;67.30;;;;;;2062237;28;20035;-87
2022/05/09 01:19:44;;;;;;;4.47;1.30;;;10.60;67.30;;;;;;2060869;28;20046;-87
2022/05/09 01:21:32;;;;;;;6.05;1.17;;;10.60;67.40;;;;;;2066688;28;20049;-87
2022/05/09 01:23:00;;;;;;;2.97;1.35;;;10.60;67.40;;;;;;2065237;28;20038;-87
2022/05/09 01:24:21;;;;;;;3.70;1.00;;;10.60;67.40;;;;;;2067693;28;20476;-87
2022/05/09 01:25:41;;;;;;;4.20;1.25;;;10.60;67.40;;;;;;2069485;28;20034;-87
2022/05/09 01:27:00;;;;;;;4.53;1.25;;;10.60;67.40;;;;;;2066078;28;20511;-87
2022/05/09 01:28:19;;;;;;;5.43;1.27;;;10.60;67.50;;;;;;2062050;28;20046;-87
2022/05/09 01:30:00;;;;;;;3.35;1.08;;;10.50;67.50;;;;;;2071718;28;20037;-86
2022/05/09 01:31:21;;;;;;;4.05;1.13;;;10.50;67.60;;;;;;2066124;28;20054;-87
2022/05/09 01:33:09;;;;;;;3.05;1.30;;;10.50;67.60;;;;;;2060352;28;20038;-87
2022/05/09 01:34:30;;;;;;;2.92;1.00;;;10.60;67.60;;;;;;2064527;28;20050;-87
2022/05/09 01:36:00;;;;;;;3.47;1.00;;;10.50;67.60;;;;;;2066969;28;20454;-86
2022/05/09 01:37:21;;;;;;;3.78;1.00;;;10.50;67.60;;;;;;2070342;28;22668;-87
2022/05/09 01:39:03;;;;;;;3.60;0.90;;;10.50;67.60;;;;;;2082033;28;20451;-87
2022/05/09 01:40:23;;;;;;;4.85;0.95;;;10.50;67.70;;;;;;2072696;28;20074;-87
2022/05/09 01:41:45;;;;;;;2.90;1.05;;;10.50;67.70;;;;;;2058857;28;20050;-86
2022/05/09 01:43:04;;;;;;;3.45;1.15;;;10.50;67.80;;;;;;2064253;28;20046;-86
2022/05/09 01:44:24;;;;;;;5.78;1.33;;;10.50;67.80;;;;;;2069668;28;20045;-86
2022/05/09 01:45:43;;;;;;;4.57;1.30;;;10.50;67.90;;;;;;2058311;28;20045;-87
2022/05/09 01:50:19;;;;;;;3.67;1.13;;;10.50;68.10;;;;;;2073754;28;20473;-87
2022/05/09 01:51:40;;;;;;;3.25;1.20;;;10.40;68.10;;;;;;2073372;28;20053;-87
2022/05/09 01:52:59;;;;;;;3.30;1.40;;;10.40;68.20;;;;;;2071900;28;20033;-87
2022/05/09 01:54:19;;;;;;;4.97;0.82;;;10.40;68.20;;;;;;2065799;28;20534;-86
2022/05/09 01:55:38;;;;;;;5.07;1.25;;;10.40;68.30;;;;;;2064939;28;20078;-86
2022/05/09 01:56:57;;;;;;;3.63;1.08;;;10.40;68.30;;;;;;2074299;28;20050;-86
2022/05/09 01:58:17;;;;;;;4.25;1.30;;;10.40;68.40;;;;;;2071679;28;20082;-87
2022/05/09 01:59:38;;;;;;;5.82;1.20;;;10.40;68.40;;;;;;2063988;28;20042;-87
2022/05/09 02:00:57;;;;;;;;;;;10.40;68.50;;;;;;2069907;28;20046;-86
2022/05/09 02:02:19;;;;;;;3.55;0.77;;;10.40;68.40;;;;;;2066898;28;19992;-86
2022/05/09 02:03:38;;;;;;;3.38;1.13;;;10.40;68.40;;;;;;2073736;28;20077;-86
2022/05/09 02:04:58;;;;;;;2.90;0.98;;;10.30;68.40;;;;;;2064776;28;20046;-87
2022/05/09 02:06:18;;;;;;;5.60;1.00;;;10.30;68.50;;;;;;2060359;28;20113;-87
2022/05/09 02:07:39;;;;;;;5.50;1.30;;;10.30;69.20;;;;;;2067616;28;20049;-86
2022/05/09 02:08:58;;;;;;;2.97;1.20;;;10.30;68.70;;;;;;2064727;28;20097;-86
2022/05/09 02:10:18;;;;;;;6.18;1.40;;;10.30;68.70;;;;;;2070531;28;20033;-86
2022/05/09 02:11:37;;;;;;;3.25;1.23;;;10.30;68.80;;;;;;2072407;28;20046;-86
2022/05/09 02:12:57;;;;;;;3.88;1.17;;;10.20;68.80;;;;;;2074477;28;20038;-86
2022/05/09 02:14:16;;;;;;;5.70;1.20;;;10.30;69.00;;;;;;2058282;28;20086;-87
2022/05/09 02:15:35;;;;;;;3.60;1.10;;;10.20;68.90;;;;;;2053797;28;20083;-86
2022/05/09 02:16:54;;;;;;;3.88;1.27;;;10.20;69.00;;;;;;2052026;28;20055;-87
2022/05/09 02:18:14;;;;;;;2.88;1.10;;;10.20;69.10;;;;;;2062671;28;20054;-87
2022/05/09 02:19:34;;;;;;;2.90;1.00;;;10.20;69.10;;;;;;2064504;28;20038;-86
2022/05/09 02:20:53;;;;;;;3.45;1.00;;;10.20;69.20;;;;;;2073141;28;20085;-86
2022/05/09 02:22:14;;;;;;;3.83;1.15;;;10.20;69.20;;;;;;2066760;28;20038;-86
2022/05/09 02:23:33;;;;;;;3.88;1.10;;;10.20;69.20;;;;;;2073408;28;20034;-87
2022/05/09 02:24:52;;;;;;;5.22;1.30;;;10.20;69.20;;;;;;2074744;28;20129;-86
2022/05/09 02:26:11;;;;;;;3.88;1.25;;;10.20;69.20;;;;;;2066965;28;20529;-86
2022/05/09 02:27:32;;;;;;;2.88;1.05;;;10.20;69.20;;;;;;2070914;28;20081;-86
2022/05/09 02:28:51;;;;;;;4.45;1.25;;;10.20;69.30;;;;;;2067175;28;20486;-86
2022/05/09 02:30:10;;;;;;;4.40;1.20;;;10.20;69.30;;;;;;2070544;28;20085;-87
2022/05/09 02:31:31;;;;;;;4.20;1.10;;;10.20;69.40;;;;;;2067894;28;20042;-86
2022/05/09 02:32:52;;;;;;;4.28;1.23;;;10.10;69.40;;;;;;2078518;28;20054;-87
2022/05/09 02:34:12;;;;;;;5.15;1.25;;;10.10;69.40;;;;;;2072047;28;20038;-87
2022/05/09 02:35:33;;;;;;;4.55;1.30;;;10.10;69.50;;;;;;2062561;28;20046;-86
2022/05/09 02:36:52;;;;;;;4.63;1.52;;;10.10;69.50;;;;;;2060662;28;20034;-87
2022/05/09 02:38:12;;;;;;;4.00;1.38;;;10.10;69.60;;;;;;2062054;28;20035;-86
2022/05/09 02:39:31;;;;;;;3.53;1.05;;;10.10;69.60;;;;;;2070914;28;20049;-87
2022/05/09 02:40:53;;;;;;;2.72;1.00;;;10.10;69.60;;;;;;2074392;28;20124;-87
2022/05/09 02:42:12;;;;;;;3.42;1.08;;;10.10;69.70;;;;;;2067411;28;20046;-87
2022/05/09 02:43:34;;;;;;;4.35;1.17;;;10.00;69.70;;;;;;2074609;28;20045;-87
2022/05/09 02:44:54;;;;;;;3.60;1.10;;;10.00;69.70;;;;;;2067228;28;20533;-87
2022/05/09 02:46:14;;;;;;;5.28;0.95;;;10.00;69.80;;;;;;2077741;28;20045;-87
2022/05/09 02:47:34;;;;;;;4.20;1.13;;;10.10;69.90;;;;;;2072780;28;20041;-87
2022/05/09 02:48:53;;;;;;;4.13;1.10;;;10.00;69.90;;;;;;2077467;28;20037;-87
2022/05/09 02:50:14;;;;;;;3.50;1.30;;;10.00;69.90;;;;;;2073488;28;20493;-87
2022/05/09 02:51:33;;;;;;;;;;;10.00;69.90;;;;;;2055707;28;20524;-87
2022/05/09 02:52:54;;;;;;;3.42;1.00;;;10.00;69.80;;;;;;2063555;28;19913;-86
2022/05/09 02:54:13;;;;;;;3.85;0.93;;;10.00;69.80;;;;;;2074218;28;20041;-87
2022/05/09 02:55:32;;;;;;;4.00;1.25;;;10.00;69.80;;;;;;2060762;28;20436;-87
2022/05/09 02:56:51;;;;;;;3.50;1.20;;;10.00;69.90;;;;;;2053468;28;20046;-87
2022/05/09 02:58:12;;;;;;;3.75;1.30;;;9.90;69.80;;;;;;2075059;28;20434;-86
2022/05/09 02:59:32;;;;;;;;;;;9.90;69.90;;;;;;2076380;28;20408;-87
2022/05/09 03:00:51;;;;;;;4.65;1.33;;;9.90;69.90;;;;;;2074429;28;19930;-87
2022/05/09 03:02:10;;;;;;;3.90;1.35;;;9.90;69.80;;;;;;2074059;28;20038;-85
2022/05/09 03:05:08;;;;;;;3.15;1.30;;;9.90;70.00;;;;;;2073939;28;20077;-87
2022/05/09 03:06:27;;;;;;;4.47;1.20;;;9.90;70.10;;;;;;2073997;28;20046;-86
2022/05/09 03:07:46;;;;;;;3.15;1.10;;;9.90;70.10;;;;;;2074649;28;20034;-87
2022/05/09 03:09:05;;;;;;;4.65;1.30;;;9.90;70.20;;;;;;2060308;28;20039;-86
2022/05/09 03:10:28;;;;;;;3.33;1.30;;;9.80;70.20;;;;;;2070608;28;20049;-87
2022/05/09 03:11:48;;;;;;;4.68;1.00;;;9.80;70.30;;;;;;2070675;28;20081;-87
2022/05/09 03:13:09;;;;;;;4.22;1.20;;;9.80;70.40;;;;;;2075009;28;20050;-86
2022/05/09 03:14:28;;;;;;;3.08;1.20;;;9.80;70.50;;;;;;2073363;28;20034;-86
2022/05/09 03:15:48;;;;;;;4.20;1.27;;;9.80;70.50;;;;;;2064196;28;20475;-86
2022/05/09 03:17:08;;;;;;;4.60;1.27;;;9.80;70.60;;;;;;2064275;28;20050;-87
2022/05/09 03:18:28;;;;;;;4.13;1.30;;;9.70;70.60;;;;;;2069620;28;20539;-87
2022/05/09 03:19:48;;;;;;;5.88;1.63;;;9.80;70.60;;;;;;2070661;28;20038;-87
2022/05/09 03:21:07;;;;;;;5.25;1.70;;;9.80;70.70;;;;;;2074348;28;20045;-87
2022/05/09 03:22:26;;;;;;;4.80;1.50;;;9.80;70.80;;;;;;2071972;28;20038;-86
2022/05/09 03:23:45;;;;;;;4.05;1.27;;;9.70;70.70;;;;;;2063490;28;20451;-87
2022/05/09 03:25:05;;;;;;;4.55;1.52;;;9.70;70.80;;;;;;2070858;28;20054;-87
2022/05/09 03:26:24;;;;;;;2.50;1.13;;;9.70;70.80;;;;;;2074678;28;20034;-87
2022/05/09 03:27:44;;;;;;;4.13;1.20;;;9.70;70.90;;;;;;2071177;28;20468;-87
2022/05/09 03:29:03;;;;;;;3.30;1.33;;;9.70;70.90;;;;;;2068447;28;20058;-87
2022/05/09 03:30:22;;;;;;;5.22;1.73;;;9.70;71.00;;;;;;2072872;28;20041;-87
2022/05/09 03:31:42;;;;;;;3.90;1.60;;;9.70;71.00;;;;;;2060893;28;20039;-87
2022/05/09 03:33:01;;;;;;;2.60;1.25;;;9.70;71.10;;;;;;2068203;28;20053;-86
2022/05/09 03:34:21;;;;;;;3.78;1.40;;;9.70;71.10;;;;;;2067775;28;20567;-87
2022/05/09 03:35:41;;;;;;;3.15;0.90;;;9.70;71.10;;;;;;2069315;28;20041;-87
2022/05/09 03:37:01;;;;;;;3.88;1.42;;;9.60;71.10;;;;;;2082450;28;20030;-87
2022/05/09 03:38:20;;;;;;;3.30;1.30;;;9.70;71.10;;;;;;2079166;28;20496;-87
2022/05/09 03:39:40;;;;;;;4.10;1.60;;;9.60;71.70;;;;;;2075396;28;20033;-86
2022/05/09 03:40:59;;;;;;;4.20;1.40;;;9.60;71.80;;;;;;2074189;28;20034;-87
2022/05/09 03:42:18;;;;;;;2.95;1.35;;;9.60;71.20;;;;;;2060708;28;20498;-87
2022/05/09 03:43:37;;;;;;;3.35;1.23;;;9.60;71.20;;;;;;2072927;28;20420;-87
2022/05/09 03:44:57;;;;;;;4.38;1.40;;;9.60;71.30;;;;;;2073609;28;20046;-88
2022/05/09 03:46:16;;;;;;;3.72;1.42;;;9.60;71.30;;;;;;2068493;28;20034;-87
2022/05/09 03:47:35;;;;;;;4.97;1.58;;;9.60;71.30;;;;;;2054519;28;20030;-87
2022/05/09 03:48:54;;;;;;;5.82;1.70;;;9.60;71.40;;;;;;2050910;28;20039;-86
2022/05/09 03:50:14;;;;;;;3.65;1.45;;;9.60;71.40;;;;;;2065901;28;20042;-87
2022/05/09 03:51:35;;;;;;;6.38;1.63;;;9.60;71.40;;;;;;2067409;28;20050;-86
2022/05/09 03:52:54;;;;;;;5.03;1.55;;;9.60;71.50;;;;;;2057968;28;20051;-87
2022/05/09 03:54:14;;;;;;;6.68;1.58;;;9.60;71.50;;;;;;2065892;28;20045;-87
2022/05/09 03:55:33;;;;;;;3.25;1.30;;;9.60;71.50;;;;;;2073747;28;20077;-87
2022/05/09 03:56:53;;;;;;;4.43;1.33;;;9.60;71.60;;;;;;2079452;28;20045;-87
2022/05/09 03:58:14;;;;;;;3.00;1.25;;;9.60;71.60;;;;;;2071043;28;20046;-87
2022/05/09 03:59:33;;;;;;;4.35;1.40;;;9.60;71.60;;;;;;2072170;28;20472;-88
2022/05/09 04:00:52;;;;;;;3.83;1.45;;;9.60;71.60;;;;;;2075791;28;20053;-87
2022/05/09 04:02:12;;;;;;;5.45;1.25;;;9.60;71.60;;;;;;2058862;28;20506;-87
2022/05/09 04:03:31;;;;;;;4.85;1.50;;;9.60;71.60;;;;;;2079115;28;20124;-87
2022/05/09 04:04:50;;;;;;;4.57;1.30;;;9.60;71.60;;;;;;2075013;28;20540;-87
2022/05/09 04:06:09;;;;;;;3.78;1.38;;;9.50;71.60;;;;;;2066748;28;20486;-87
2022/05/09 04:07:29;;;;;;;4.18;1.40;;;9.60;71.60;;;;;;2058473;28;20054;-87
2022/05/09 04:08:48;;;;;;;5.60;1.50;;;9.60;71.60;;;;;;2067677;28;20511;-87
2022/05/09 04:10:09;;;;;;;6.78;1.88;;;9.60;71.70;;;;;;2071709;28;20046;-87
2022/05/09 04:11:28;;;;;;;4.68;1.50;;;9.60;71.70;;;;;;2077746;28;20046;-87
2022/05/09 04:12:47;;;;;;;3.22;1.20;;;9.60;71.60;;;;;;2076804;28;20044;-86
2022/05/09 04:14:07;;;;;;;3.75;1.35;;;9.60;71.70;;;;;;2072910;28;20033;-87
2022/05/09 04:17:06;;;;;;;3.95;1.20;;;9.60;71.60;;;;;;2073418;28;20210;-87
2022/05/09 04:18:26;;;;;;;4.63;1.73;;;9.60;71.70;;;;;;2050530;29;20047;-87
2022/05/09 04:19:45;;;;;;;5.30;1.33;;;9.60;71.60;;;;;;2070210;28;20125;-87
2022/05/09 04:21:05;;;;;;;3.05;1.40;;;9.60;72.20;;;;;;2058223;28;20047;-86
2022/05/09 04:22:25;;;;;;;5.53;1.20;;;9.60;71.60;;;;;;2066406;28;20074;-87
2022/05/09 04:23:45;;;;;;;5.90;1.27;;;9.60;71.60;;;;;;2056719;28;20039;-86
2022/05/09 04:25:05;;;;;;;2.63;1.08;;;9.60;71.60;;;;;;2054450;28;20133;-87
2022/05/09 04:26:25;;;;;;;4.50;1.38;;;9.60;71.60;;;;;;2051546;28;20035;-87
2022/05/09 04:27:45;;;;;;;;;;;9.70;71.60;;;;;;2064355;28;20046;-87
2022/05/09 04:29:05;;;;;;;5.20;1.30;;;9.70;71.60;;;;;;2065013;28;19906;-86
2022/05/09 04:30:25;;;;;;;4.80;1.40;;;9.70;71.50;;;;;;2073494;28;20057;-87
2022/05/09 04:31:44;;;;;;;3.42;1.25;;;9.70;71.50;;;;;;2062340;28;20122;-86
2022/05/09 04:33:05;;;;;;;4.80;1.40;;;9.70;71.50;;;;;;2054755;28;20046;-86
2022/05/09 04:34:24;;;;;;;3.70;1.30;;;9.70;71.50;;;;;;2065840;28;20038;-87
2022/05/09 04:35:44;;;;;;;7.05;1.20;;;9.70;71.50;;;;;;2060016;28;20038;-87
2022/05/09 04:37:03;;;;;;;4.88;1.30;;;9.80;71.50;;;;;;2070526;28;20132;-87
2022/05/09 04:38:24;;;;;;;4.80;1.50;;;9.70;71.50;;;;;;2057396;28;20074;-87
2022/05/09 04:39:43;;;;;;;6.25;1.40;;;9.70;71.50;;;;;;2063546;28;20485;-87
2022/05/09 04:41:03;;;;;;;4.57;1.23;;;9.70;71.50;;;;;;2072596;28;20038;-86
2022/05/09 04:42:23;;;;;;;5.82;1.55;;;9.80;71.50;;;;;;2065091;28;20054;-87
2022/05/09 04:43:42;;;;;;;6.68;1.50;;;9.80;71.40;;;;;;2070879;28;20480;-87
2022/05/09 04:45:01;;;;;;;5.75;1.50;;;9.80;71.50;;;;;;2056180;28;20067;-87
2022/05/09 04:46:21;;;;;;;3.72;1.30;;;9.80;71.50;;;;;;2058874;28;20047;-87
2022/05/09 04:47:41;;;;;;;3.85;1.20;;;9.80;71.40;;;;;;2073962;28;20451;-87
2022/05/09 04:49:00;;;;;;;4.45;1.38;;;9.80;71.40;;;;;;2059442;28;20054;-87
2022/05/09 04:50:22;;;;;;;4.65;1.50;;;9.80;71.40;;;;;;2062157;28;20038;-87
2022/05/09 04:51:42;;;;;;;5.10;1.33;;;9.80;71.40;;;;;;2071009;28;20125;-88
2022/05/09 04:53:02;;;;;;;4.68;1.30;;;9.90;71.40;;;;;;2056658;28;20038;-87
2022/05/09 04:54:22;;;;;;;2.67;1.40;;;9.90;71.40;;;;;;2066243;28;20046;-88
2022/05/09 04:55:41;;;;;;;7.15;1.50;;;9.90;71.30;;;;;;2070942;28;20041;-89
2022/05/09 04:57:00;;;;;;;5.75;1.77;;;9.90;71.30;;;;;;2064975;28;20054;-87
2022/05/09 04:58:21;;;;;;;4.47;1.50;;;9.90;71.30;;;;;;2047656;29;20023;-88
2022/05/09 04:59:40;;;;;;;5.97;1.67;;;9.90;71.30;;;;;;2062619;28;20487;-87
2022/05/09 05:00:59;;;;;;;4.18;1.60;;;9.90;71.30;;;;;;2055533;28;20121;-88
2022/05/09 05:02:18;;;;;;;5.07;1.60;;;9.90;71.30;;;;;;2066742;28;20065;-87
2022/05/09 05:03:38;;;;;;;4.03;1.70;;;10.00;71.40;;;;;;2076746;28;20849;-89
2022/05/09 05:04:57;;;;;;;6.05;1.67;;;9.90;71.30;;;;;;2070320;28;20149;-88
2022/05/09 05:06:16;;;;;;;5.90;1.50;;;10.00;71.30;;;;;;2073722;28;20543;-86
2022/05/09 05:07:36;;;;;;;6.38;1.80;;;10.00;71.30;;;;;;2061620;28;20054;-87
2022/05/09 05:08:55;;;;;;;4.57;1.45;;;10.10;71.30;;;;;;2060595;28;20484;-88
2022/05/09 05:10:16;;;;;;;5.97;1.60;;;10.10;71.20;;;;;;2072831;28;20064;-89
2022/05/09 05:11:37;;;;;;;;;;;10.10;71.10;;;;;;2076422;28;20480;-88
2022/05/09 05:12:58;;;;;;;6.13;1.80;;;10.20;71.00;;;;;;2073181;28;19921;-88
2022/05/09 05:14:18;;;;;;;6.25;1.77;;;10.30;70.90;;;;;;2073087;28;20338;-88
2022/05/09 05:15:38;;;;;;;4.90;1.65;;;10.40;70.80;;;;;;2073145;28;20065;-88
2022/05/09 05:17:01;;;;;;;4.63;1.63;;;10.40;70.60;;;;;;2073303;28;20045;-88
2022/05/09 05:18:23;;;;;;;4.38;1.63;;;10.50;70.50;;;;;;2074296;28;20033;-89
2022/05/09 05:19:44;;;;;;;5.18;1.70;;;10.60;70.40;;;;;;2064660;28;20125;-87
2022/05/09 05:21:14;;;;;;;4.47;1.70;;;10.70;70.20;;;;;;2071116;28;20042;-88
2022/05/09 05:22:38;;;;;;;3.70;1.40;;;10.80;70.00;;;;;;2074057;28;20042;-88
2022/05/09 05:23:59;;;;;;;5.38;1.42;;;10.90;69.90;;;;;;2074032;28;20029;-88
2022/05/09 05:25:25;;;;;;;4.30;1.50;;;10.90;69.60;;;;;;2073879;28;20519;-88
2022/05/09 05:26:44;;;;;;;5.00;1.50;;;11.10;69.50;;;;;;2073898;28;20404;-86
2022/05/09 05:28:05;;;;;;;4.55;1.63;;;11.10;69.30;;;;;;2073633;28;20480;-89
2022/05/09 05:29:24;;;;;;;6.55;1.50;;;11.20;69.20;;;;;;2072835;28;20042;-88
2022/05/09 05:30:43;;;;;;;5.07;1.60;;;11.30;69.00;;;;;;2072475;28;20041;-88
2022/05/09 05:32:17;;;;;;;5.97;2.00;;;11.40;68.90;;;;;;2073902;28;20042;-88
2022/05/09 05:33:37;;;;;;;5.90;1.40;;;11.50;68.80;;;;;;2068218;28;20045;-87
2022/05/09 05:34:56;;;;;;;7.55;1.48;;;11.50;68.70;;;;;;2058401;28;20046;-89
2022/05/09 05:36:16;;;;;;;5.47;1.58;;;11.50;68.50;;;;;;2058195;28;20042;-89
2022/05/09 05:37:35;;;;;;;6.47;1.73;;;11.60;68.50;;;;;;2065278;28;20579;-88
2022/05/09 05:38:54;;;;;;;3.80;1.55;;;11.70;68.50;;;;;;2052097;28;20031;-88
2022/05/09 05:40:14;;;;;;;5.65;1.73;;;11.70;68.30;;;;;;2063247;28;20500;-88
2022/05/09 05:41:34;;;;;;;5.13;1.60;;;11.80;68.30;;;;;;2073306;28;20480;-89
2022/05/09 05:42:53;;;;;;;4.65;1.63;;;11.80;68.20;;;;;;2056249;28;20043;-89
2022/05/09 05:44:14;;;;;;;4.35;1.58;;;11.80;68.20;;;;;;2042968;28;20043;-89
2022/05/09 05:45:32;;;;;;;6.35;1.40;;;11.80;68.20;;;;;;2054139;28;20122;-89
2022/05/09 05:46:52;;;;;;;7.30;1.85;;;11.80;68.20;;;;;;2058992;28;20034;-88
2022/05/09 05:48:11;;;;;;;6.22;1.80;;;11.80;68.20;;;;;;2062125;28;20054;-89
2022/05/09 05:49:31;;;;;;;6.00;1.73;;;11.80;68.10;;;;;;2056437;28;20046;-89
2022/05/09 05:50:54;;;;;;;6.85;2.03;;;11.90;68.20;;;;;;2069173;28;20042;-89
2022/05/09 05:52:14;;;;;;;6.40;1.73;;;11.90;68.10;;;;;;2073618;28;20033;-89
2022/05/09 05:53:34;;;;;;;6.18;1.85;;;11.90;68.10;;;;;;2072693;28;20062;-89
2022/05/09 05:54:53;;;;;;;7.07;1.80;;;11.90;68.00;;;;;;2073461;28;20473;-89
2022/05/09 05:56:13;;;;;;;4.85;1.55;;;11.90;68.00;;;;;;2074680;28;20034;-89
2022/05/09 05:57:34;;;;;;;6.13;1.60;;;12.00;68.00;;;;;;2064569;28;20046;-88
2022/05/09 05:58:53;;;;;;;6.15;1.73;;;12.10;68.00;;;;;;2070819;28;20054;-89
2022/05/09 06:00:21;;;;;;;4.53;1.55;;;12.10;67.80;;;;;;2074466;28;20117;-88
2022/05/09 06:01:40;;;;;;;5.80;1.63;;;12.20;67.70;;;;;;2073904;28;20042;-88
2022/05/09 06:02:59;;;;;;;6.30;1.50;;;12.30;67.70;;;;;;2072838;28;20034;-89
2022/05/09 06:04:19;;;;;;;7.88;1.52;;;12.30;67.40;;;;;;2065283;28;20042;-89
2022/05/09 06:05:38;;;;;;;3.90;1.33;;;12.40;67.40;;;;;;2062021;28;20149;-88
2022/05/09 06:06:58;;;;;;;5.50;1.77;;;12.40;67.30;;;;;;2069952;28;20034;-88
2022/05/09 06:08:17;;;;;;;4.90;1.30;;;12.50;67.20;;;;;;2073481;28;20038;-88
2022/05/09 06:09:36;;;;;;;5.22;1.58;;;12.60;67.10;;;;;;2072186;28;20073;-88
2022/05/09 06:10:56;;;;;;;5.40;1.50;;;12.60;67.10;;;;;;2061609;28;20081;-89
2022/05/09 06:12:17;;;;;;;4.40;1.42;;;12.60;66.90;;;;;;2070086;28;20128;-88
2022/05/09 06:13:36;;;;;;;4.35;1.63;;;12.60;66.80;;;;;;2073598;28;20034;-89
2022/05/09 06:16:34;;;;;;;4.07;1.45;;;12.70;66.80;;;;;;2072028;28;20038;-88
2022/05/09 06:17:54;;;;;;;7.05;1.67;;;12.70;66.70;;;;;;2066821;28;20118;-88
2022/05/09 06:19:13;;;;;;;4.05;1.65;;;12.80;66.70;;;;;;2065959;28;20077;-89
2022/05/09 06:20:35;;;;;;;5.63;1.67;;;12.80;66.60;;;;;;2068572;28;20489;-88
2022/05/09 06:21:56;;;;;;;4.45;1.48;;;12.80;66.50;;;;;;2065293;28;20117;-88
2022/05/09 06:23:17;;;;;;;5.07;1.40;;;12.90;66.50;;;;;;2069185;28;20045;-88
2022/05/09 06:24:37;;;;;;;5.57;1.80;;;12.90;66.50;;;;;;2073165;28;20034;-88
2022/05/09 06:25:56;;;;;;;5.38;1.60;;;12.90;66.50;;;;;;2073458;28;20046;-88
2022/05/09 06:27:15;;;;;;;3.60;1.27;;;13.00;66.40;;;;;;2063971;28;20046;-89
2022/05/09 06:28:35;;;;;;;3.78;1.52;;;13.00;66.30;;;;;;2061460;28;20042;-89
2022/05/09 06:29:54;;;;;;;5.15;1.70;;;13.10;66.30;;;;;;2068796;28;20038;-89
2022/05/09 06:31:13;;;;;;;6.82;1.60;;;13.00;66.10;;;;;;2073815;28;20478;-89
2022/05/09 06:32:33;;;;;;;4.30;1.50;;;13.10;66.10;;;;;;2066663;28;20089;-89
2022/05/09 06:33:52;;;;;;;5.30;1.45;;;13.10;66.20;;;;;;2065655;28;20038;-88
2022/05/09 06:35:20;;;;;;;5.25;1.73;;;13.10;66.20;;;;;;2065747;28;20054;-89
2022/05/09 06:36:41;;;;;;;3.95;1.77;;;13.10;66.10;;;;;;2065727;28;20030;-89
2022/05/09 06:38:02;;;;;;;;;;;13.10;66.10;;;;;;2072791;28;20037;-89
2022/05/09 06:39:21;;;;;;;5.05;1.77;;;13.10;66.10;;;;;;2069154;28;20356;-88
2022/05/09 06:40:41;;;;;;;5.57;1.85;;;13.10;66.10;;;;;;2073713;28;20121;-89
2022/05/09 06:42:03;;;;;;;6.75;2.10;;;13.10;66.00;;;;;;2072973;28;20038;-87
2022/05/09 06:43:23;;;;;;;6.90;1.90;;;13.10;66.00;;;;;;2065026;28;20034;-89
2022/05/09 06:44:42;;;;;;;6.65;1.67;;;13.10;66.00;;;;;;2062902;28;20038;-89
2022/05/09 06:46:03;;;;;;;5.03;1.92;;;13.20;66.00;;;;;;2063786;28;20042;-86
2022/05/09 06:47:22;;;;;;;5.28;1.50;;;13.20;66.00;;;;;;2063813;28;20030;-89
2022/05/09 06:48:42;;;;;;;3.70;1.45;;;13.20;65.90;;;;;;2069147;28;20046;-89
2022/05/09 06:50:04;;;;;;;5.88;1.60;;;13.30;65.80;;;;;;2078829;28;20034;-88
2022/05/09 06:51:23;;;;;;;5.05;1.60;;;13.40;65.80;;;;;;2076690;28;20488;-89
2022/05/09 06:52:42;;;;;;;5.00;1.77;;;13.50;65.70;;;;;;2072313;28;20515;-89
2022/05/09 06:54:03;;;;;;;3.28;1.20;;;13.60;65.60;;;;;;2058500;28;20039;-88
2022/05/09 06:55:22;;;;;;;4.68;1.42;;;13.70;65.40;;;;;;2063982;28;20046;-86
2022/05/09 06:56:42;;;;;;;5.68;1.60;;;13.70;65.20;;;;;;2066048;28;20038;-88
2022/05/09 06:58:09;;;;;;;3.75;1.33;;;13.80;65.10;;;;;;2065459;28;20117;-88
2022/05/09 06:59:31;;;;;;;4.38;1.55;;;13.90;65.00;;;;;;2068041;28;20045;-88
2022/05/09 07:00:51;;;;;;;5.05;1.50;;;13.90;64.90;;;;;;2072190;28;20046;-89
2022/05/09 07:02:13;;;;;;;5.38;1.38;;;14.00;64.80;;;;;;2074653;28;20115;-88
2022/05/09 07:03:34;;;;;;;4.22;1.60;;;14.10;64.80;;;;;;2072773;28;20510;-89
2022/05/09 07:04:53;;;;;;;4.03;1.48;;;14.10;64.70;;;;;;2068808;28;20054;-88
2022/05/09 07:06:13;;;;;;;8.07;1.60;;;14.20;64.60;;;;;;2075006;28;20026;-88
2022/05/09 07:07:32;;;;;;;5.20;1.42;;;14.30;64.50;;;;;;2074632;28;20042;-88
2022/05/09 07:08:51;;;;;;;5.32;1.60;;;14.30;64.40;;;;;;2074830;28;20038;-88
2022/05/09 07:10:12;;;;;;;3.85;1.48;;;14.40;64.40;;;;;;2075161;28;20046;-89